• Join FlightAware (Why Join?)
  • Login
  • US Flag 
03:00PM EDT


 

Airport Tracker/Info


-or-


 

Live Flight TrackerFlight Track Log ✈ N273AY ✈ 06-Apr-2012 ✈ LIRF / FCO - KPHL

Flight Track Log - Related Links

Times and Time Zones

All times are in EDT time to prevent confusion due to time zone crossing. See the N273AY flight status page for this flight to view local times or setup timezone preferences in your user account.

Time Position Orientation Groundspeed Altitude Reporting Facility
EDT Latitude Longitude Course Direction KTS MPH feet Rate Location/Type
05:58AM 41.8058 12.2159 299° West  Level FlightAware Approximate
05:59AM 41.8524 12.0794 300° West  Level FlightAware Approximate
06:00AM 41.9148 11.9558 299° West  Level FlightAware Approximate
06:01AM 41.9675 11.8232 299° West  Level FlightAware Approximate
06:02AM 42.0238 11.6930 299° West  Level FlightAware Approximate
06:03AM 42.0800 11.5625 299° West  Level FlightAware Approximate
06:04AM 42.1372 11.4330 299° West  Level FlightAware Approximate
06:05AM 42.1931 11.3021 299° West  Level FlightAware Approximate
06:06AM 42.2488 11.1709 298° West  Level FlightAware Approximate
06:07AM 42.3088 11.0450 298° West  Level FlightAware Approximate
06:08AM 42.3642 10.9133 298° West  Level FlightAware Approximate
06:09AM 42.4177 10.7807 298° West  Level FlightAware Approximate
06:10AM 42.4728 10.6485 297° West  Level FlightAware Approximate
06:11AM 42.5262 10.5152 297° West  Level FlightAware Approximate
06:12AM 42.5810 10.3826 297° West  Level FlightAware Approximate
06:13AM 42.6376 10.2512 296° West  Level FlightAware Approximate
06:14AM 42.6904 10.1170 296° West  Level FlightAware Approximate
06:15AM 42.7448 9.9837 295° West  Level FlightAware Approximate
06:16AM 42.7938 9.8481 295° West  Level FlightAware Approximate
06:17AM 42.8479 9.7144 294° West  Level FlightAware Approximate
06:23AM 43.0124 9.2038 295° West 427 491 32,400  Level FlightAware ADS-B
06:23AM 43.0392 9.1258 295° West 434 499 32,500 180 Climbing FlightAware ADS-B
06:24AM 43.0688 9.0391 295° West 438 504 32,600 180 Climbing FlightAware ADS-B
06:24AM 43.0957 8.9606 295° West 443 510 32,700 540 Climbing FlightAware ADS-B
06:25AM 43.1216 8.8848 295° West 440 506 33,200 540 Climbing FlightAware ADS-B
06:25AM 43.1471 8.8098 295° West 442 509 33,300 360 Climbing FlightAware ADS-B
06:26AM 43.1739 8.7303 295° West 442 509 33,600 540 Climbing FlightAware ADS-B
06:26AM 43.2008 8.6508 295° West 441 507 33,900 360 Climbing FlightAware ADS-B
06:27AM 43.2266 8.5741 295° West 444 511 34,000 60 Climbing FlightAware ADS-B
06:27AM 43.2537 8.4935 295° West 441 507 34,000  Level FlightAware ADS-B
06:28AM 43.2812 8.4113 295° West 442 509 34,000  Level FlightAware ADS-B
06:29AM 43.3512 8.2015 295° West 442 509 34,000  Level FlightAware ADS-B
06:30AM 43.3760 8.1266 294° West 445 512 34,000  Level FlightAware ADS-B
06:30AM 43.4022 8.0472 294° West 444 511 34,000  Level FlightAware ADS-B
06:31AM 43.4323 7.9560 294° West 442 509 34,000  Level FlightAware ADS-B
06:31AM 43.4576 7.8789 294° West 441 507 34,000  Level FlightAware ADS-B
06:32AM 43.4818 7.8051 294° West 442 509 34,000  Level FlightAware ADS-B
06:32AM 43.5083 7.7239 294° West 443 510 34,000  Level FlightAware ADS-B
06:33AM 43.5316 7.6527 298° West 442 509 34,000  Level FlightAware ADS-B
06:33AM 43.5422 7.6253 302° West 445 512 34,000  Level FlightAware ADS-B
06:33AM 43.5569 7.5929 306° West 448 516 34,000  Level FlightAware ADS-B
06:34AM 43.5767 7.5554 309° West 450 518 34,000  Level FlightAware ADS-B
06:34AM 43.6160 7.4876 309° West 451 519 34,000  Level FlightAware ADS-B
06:35AM 43.6563 7.4180 309° West 451 519 34,000  Level FlightAware ADS-B
06:35AM 43.6958 7.3496 309° West 451 519 34,000  Level FlightAware ADS-B
06:36AM 43.7361 7.2797 309° West 451 519 34,000  Level FlightAware ADS-B
06:36AM 43.7752 7.2116 308° West 452 520 34,000  Level FlightAware ADS-B
06:37AM 43.8148 7.1424 309° West 452 520 34,000  Level FlightAware ADS-B
06:37AM 43.8538 7.0744 308° West 453 521 34,000  Level FlightAware ADS-B
06:38AM 43.8932 7.0054 308° West 454 522 34,000  Level FlightAware ADS-B
06:38AM 43.9329 6.9356 308° West 454 522 34,000  Level FlightAware ADS-B
06:39AM 43.9730 6.8649 308° West 454 522 34,000  Level FlightAware ADS-B
06:39AM 44.0125 6.7953 308° West 453 521 34,000  Level FlightAware ADS-B
06:40AM 44.0514 6.7265 308° West 453 521 34,000  Level FlightAware ADS-B
06:40AM 44.0930 6.6526 308° West 454 522 34,000  Level FlightAware ADS-B
06:41AM 44.1343 6.5794 308° West 452 520 34,000  Level FlightAware ADS-B
06:41AM 44.1937 6.4734 308° West 452 520 34,000  Level FlightAware ADS-B
06:42AM 44.2323 6.4044 300° West 453 521 34,000  Level FlightAware ADS-B
06:50AM 44.6081 5.3002 300° West  Level FlightAware Approximate
06:51AM 44.6555 5.1576 300° West  Level FlightAware Approximate
06:52AM 44.7027 5.0148 300° West  Level FlightAware Approximate
06:53AM 44.7498 4.8717 300° West  Level FlightAware Approximate
06:54AM 44.7966 4.7284 299° West  Level FlightAware Approximate
06:55AM 44.8433 4.5849 299° West  Level FlightAware Approximate
06:56AM 44.8898 4.4412 299° West  Level FlightAware Approximate
06:57AM 44.9362 4.2972 299° West  Level FlightAware Approximate
06:58AM 44.9823 4.1530 299° West  Level FlightAware Approximate
06:59AM 45.0283 4.0085 299° West  Level FlightAware Approximate
07:00AM 45.0741 3.8639 299° West  Level FlightAware Approximate
07:01AM 45.1197 3.7190 299° West  Level FlightAware Approximate
07:02AM 45.1651 3.5738 299° West  Level FlightAware Approximate
07:03AM 45.2103 3.4284 299° West  Level FlightAware Approximate
07:04AM 45.2554 3.2828 299° West  Level FlightAware Approximate
07:05AM 45.3002 3.1370 299° West  Level FlightAware Approximate
07:06AM 45.3449 2.9910 299° West  Level FlightAware Approximate
07:07AM 45.3894 2.8447 299° West  Level FlightAware Approximate
07:08AM 45.4337 2.6981 298° West  Level FlightAware Approximate
07:09AM 45.4778 2.5514 298° West  Level FlightAware Approximate
07:10AM 45.5217 2.4044 298° West  Level FlightAware Approximate
07:11AM 45.5655 2.2572 298° West  Level FlightAware Approximate
07:12AM 45.6090 2.1098 298° West  Level FlightAware Approximate
07:13AM 45.6524 1.9621 298° West  Level FlightAware Approximate
07:14AM 45.6956 1.8142 298° West  Level FlightAware Approximate
07:15AM 45.7385 1.6661 298° West  Level FlightAware Approximate
07:16AM 45.7813 1.5177 298° West  Level FlightAware Approximate
07:17AM 45.8239 1.3691 298° West  Level FlightAware Approximate
07:18AM 45.8663 1.2203 298° West  Level FlightAware Approximate
07:19AM 45.9085 1.0713 298° West  Level FlightAware Approximate
07:20AM 45.9505 0.9220 298° West  Level FlightAware Approximate
07:21AM 45.9924 0.7725 298° West  Level FlightAware Approximate
07:22AM 46.0340 0.6228 298° West  Level FlightAware Approximate
07:23AM 46.0754 0.4729 297° West  Level FlightAware Approximate
07:24AM 46.1166 0.3227 297° West  Level FlightAware Approximate
07:25AM 46.1577 0.1723 297° West  Level FlightAware Approximate
07:26AM 46.1985 0.0217 297° West  Level FlightAware Approximate
07:27AM 46.2392 -0.1291 297° West  Level FlightAware Approximate
07:28AM 46.2796 -0.2802 297° West  Level FlightAware Approximate
07:29AM 46.3198 -0.4314 297° West  Level FlightAware Approximate
07:30AM 46.3599 -0.5829 297° West  Level FlightAware Approximate
07:31AM 46.3997 -0.7347 297° West  Level FlightAware Approximate
07:32AM 46.4394 -0.8866 297° West  Level FlightAware Approximate
07:33AM 46.4788 -1.0388 297° West  Level FlightAware Approximate
07:34AM 46.4718 -1.1826 297° West  Level FlightAware Approximate
07:35AM 46.5119 -1.3345 297° West  Level FlightAware Approximate
07:36AM 46.5518 -1.4866 297° West  Level FlightAware Approximate
07:37AM 46.5915 -1.6389 297° West  Level FlightAware Approximate
07:38AM 46.6310 -1.7915 297° West  Level FlightAware Approximate
07:39AM 46.6703 -1.9443 297° West  Level FlightAware Approximate
07:40AM 46.7094 -2.0973 297° West  Level FlightAware Approximate
07:41AM 46.7483 -2.2505 297° West  Level FlightAware Approximate
07:42AM 46.7870 -2.4039 297° West  Level FlightAware Approximate
07:43AM 46.8255 -2.5576 296° West  Level FlightAware Approximate
07:44AM 46.8637 -2.7115 296° West  Level FlightAware Approximate
07:45AM 46.9018 -2.8656 296° West  Level FlightAware Approximate
07:46AM 46.9397 -3.0199 296° West  Level FlightAware Approximate
07:47AM 46.9773 -3.1744 296° West  Level FlightAware Approximate
07:48AM 47.0148 -3.3292 296° West  Level FlightAware Approximate
07:49AM 47.0520 -3.4842 296° West  Level FlightAware Approximate
07:50AM 47.0890 -3.6393 296° West  Level FlightAware Approximate
07:51AM 47.1259 -3.7947 296° West  Level FlightAware Approximate
07:52AM 47.1625 -3.9504 296° West  Level FlightAware Approximate
07:53AM 47.1988 -4.1062 296° West  Level FlightAware Approximate
07:54AM 47.2350 -4.2622 296° West  Level FlightAware Approximate
07:55AM 47.2710 -4.4185 296° West  Level FlightAware Approximate
07:56AM 47.3068 -4.5750 296° West  Level FlightAware Approximate
07:57AM 47.3423 -4.7317 296° West  Level FlightAware Approximate
07:58AM 47.3776 -4.8885 296° West  Level FlightAware Approximate
07:59AM 47.4127 -5.0457 296° West  Level FlightAware Approximate
08:00AM 47.4476 -5.2030 296° West  Level FlightAware Approximate
08:01AM 47.4823 -5.3605 296° West  Level FlightAware Approximate
08:02AM 47.5168 -5.5182 296° West  Level FlightAware Approximate
08:03AM 47.5510 -5.6761 296° West  Level FlightAware Approximate
08:04AM 47.5851 -5.8343 296° West  Level FlightAware Approximate
08:05AM 47.6189 -5.9926 296° West  Level FlightAware Approximate
08:06AM 47.6525 -6.1512 296° West  Level FlightAware Approximate
08:07AM 47.6859 -6.3099 295° West  Level FlightAware Approximate
08:08AM 47.7191 -6.4689 295° West  Level FlightAware Approximate
08:09AM 47.7520 -6.6280 295° West  Level FlightAware Approximate
08:10AM 47.7847 -6.7874 295° West  Level FlightAware Approximate
08:11AM 47.8172 -6.9470 295° West  Level FlightAware Approximate
08:12AM 47.8495 -7.1067 295° West  Level FlightAware Approximate
08:13AM 47.8815 -7.2667 295° West  Level FlightAware Approximate
08:14AM 47.9134 -7.4268 295° West  Level FlightAware Approximate
08:15AM 47.9450 -7.5872 295° West  Level FlightAware Approximate
08:16AM 47.9764 -7.7477 295° West  Level FlightAware Approximate
08:17AM 48.0076 -7.9085 295° West  Level FlightAware Approximate
08:18AM 48.0306 -8.0720 295° West  Level FlightAware Approximate
08:19AM 48.0614 -8.2330 295° West  Level FlightAware Approximate
08:20AM 48.0919 -8.3943 295° West  Level FlightAware Approximate
08:21AM 48.1223 -8.5557 295° West  Level FlightAware Approximate
08:22AM 48.1524 -8.7174 296° West  Level FlightAware Approximate
08:23AM 48.1823 -8.8792 296° West  Level FlightAware Approximate
08:24AM 48.2119 -9.0412 296° West  Level FlightAware Approximate
08:25AM 48.2414 -9.2034 296° West  Level FlightAware Approximate
08:26AM 48.2706 -9.3658 296° West  Level FlightAware Approximate
08:27AM 48.2995 -9.5284 296° West  Level FlightAware Approximate
08:28AM 48.3283 -9.6912 296° West  Level FlightAware Approximate
08:29AM 48.3568 -9.8541 296° West  Level FlightAware Approximate
08:30AM 48.3851 -10.0173 296° West  Level FlightAware Approximate
08:31AM 48.4131 -10.1806 296° West  Level FlightAware Approximate
08:32AM 48.4409 -10.3441 296° West  Level FlightAware Approximate
08:33AM 48.4685 -10.5077 296° West  Level FlightAware Approximate
08:34AM 48.4959 -10.6716 296° West  Level FlightAware Approximate
08:35AM 48.5230 -10.8356 296° West  Level FlightAware Approximate
08:36AM 48.5499 -10.9998 296° West  Level FlightAware Approximate
08:37AM 48.5799 -11.1849 296° West  Level FlightAware Approximate
08:38AM 48.6096 -11.3702 296° West  Level FlightAware Approximate
08:39AM 48.6390 -11.5557 297° West  Level FlightAware Approximate
08:40AM 48.6681 -11.7414 297° West  Level FlightAware Approximate
08:41AM 48.6969 -11.9274 297° West  Level FlightAware Approximate
08:42AM 48.7254 -12.1135 297° West  Level FlightAware Approximate
08:43AM 48.7537 -12.2999 297° West  Level FlightAware Approximate
08:44AM 48.7816 -12.4865 297° West  Level FlightAware Approximate
08:45AM 48.8092 -12.6733 298° West  Level FlightAware Approximate
08:46AM 48.8365 -12.8603 298° West  Level FlightAware Approximate
08:47AM 48.8635 -13.0475 298° West  Level FlightAware Approximate
08:48AM 48.8902 -13.2349 298° West  Level FlightAware Approximate
08:49AM 48.9220 -13.4205 299° West  Level FlightAware Approximate
08:50AM 48.9479 -13.6083 299° West  Level FlightAware Approximate
08:51AM 48.9735 -13.7964 299° West  Level FlightAware Approximate
08:52AM 48.9989 -13.9846 300° West  Level FlightAware Approximate
08:53AM 49.0239 -14.1731 300° West  Level FlightAware Approximate
08:54AM 49.0486 -14.3617 300° West  Level FlightAware Approximate
08:55AM 49.0730 -14.5505 301° West  Level FlightAware Approximate
08:56AM 49.0971 -14.7395 301° West  Level FlightAware Approximate
08:57AM 49.1209 -14.9287 302° West  Level FlightAware Approximate
08:58AM 49.1488 -15.1162 302° West  Level FlightAware Approximate
08:59AM 49.1721 -15.3057 303° West  Level FlightAware Approximate
09:00AM 51.0000 -20.0000 283° West 527 606 37,000  Level ETMS Enhanced Traffic Management System
09:00AM 49.1950 -15.4954 300° West  Level FlightAware Approximate
09:07AM 51.2277 -21.6527 282° West 527 606 37,000  Level FlightAware Transoceanic
09:08AM 51.2573 -21.8819 282° West 527 606 37,000  Level FlightAware Transoceanic
09:09AM 51.2864 -22.1114 281° West 527 606 37,000  Level FlightAware Transoceanic
09:10AM 51.3150 -22.3412 281° West 527 606 37,000  Level FlightAware Transoceanic
09:11AM 51.3433 -22.5712 281° West 527 606 37,000  Level FlightAware Transoceanic
09:12AM 51.3710 -22.8016 281° West 527 606 37,000  Level FlightAware Transoceanic
09:13AM 51.3984 -23.0322 281° West 527 606 37,000  Level FlightAware Transoceanic
09:14AM 51.4252 -23.2631 280° West 527 606 37,000  Level FlightAware Transoceanic
09:15AM 51.4516 -23.4943 280° West 527 606 37,000  Level FlightAware Transoceanic
09:16AM 51.4776 -23.7257 280° West 527 606 37,000  Level FlightAware Transoceanic
09:17AM 51.5031 -23.9575 280° West 527 606 37,000  Level FlightAware Transoceanic
09:18AM 51.5281 -24.1894 280° West 527 606 37,000  Level FlightAware Transoceanic
09:19AM 51.5527 -24.4216 280° West 527 606 37,000  Level FlightAware Transoceanic
09:20AM 51.5769 -24.6541 279° West 527 606 37,000  Level FlightAware Transoceanic
09:21AM 51.6005 -24.8868 279° West 527 606 37,000  Level FlightAware Transoceanic
09:22AM 51.6237 -25.1197 279° West 527 606 37,000  Level FlightAware Transoceanic
09:23AM 51.6465 -25.3529 279° West 527 606 37,000  Level FlightAware Transoceanic
09:24AM 51.6688 -25.5863 279° West 527 606 37,000  Level FlightAware Transoceanic
09:25AM 51.6906 -25.8200 278° West 527 606 37,000  Level FlightAware Transoceanic
09:26AM 51.7119 -26.0538 278° West 527 606 37,000  Level FlightAware Transoceanic
09:27AM 51.7328 -26.2879 278° West 527 606 37,000  Level FlightAware Transoceanic
09:28AM 51.7533 -26.5222 278° West 527 606 37,000  Level FlightAware Transoceanic
09:29AM 51.7732 -26.7567 278° West 527 606 37,000  Level FlightAware Transoceanic
09:30AM 51.7927 -26.9914 278° West 527 606 37,000  Level FlightAware Transoceanic
09:31AM 51.8117 -27.2264 277° West 527 606 37,000  Level FlightAware Transoceanic
09:32AM 51.8303 -27.4615 277° West 527 606 37,000  Level FlightAware Transoceanic
09:33AM 51.8484 -27.6968 277° West 527 606 37,000  Level FlightAware Transoceanic
09:34AM 51.8660 -27.9322 277° West 527 606 37,000  Level FlightAware Transoceanic
09:35AM 51.8831 -28.1679 277° West 527 606 37,000  Level FlightAware Transoceanic
09:36AM 51.8998 -28.4038 276° West 527 606 37,000  Level FlightAware Transoceanic
09:37AM 51.9160 -28.6398 276° West 527 606 37,000  Level FlightAware Transoceanic
09:38AM 51.9317 -28.8760 276° West 527 606 37,000  Level FlightAware Transoceanic
09:39AM 51.9470 -29.1123 276° West 527 606 37,000  Level FlightAware Transoceanic
09:40AM 51.9618 -29.3488 276° West 527 606 37,000  Level FlightAware Transoceanic
09:41AM 51.9761 -29.5855 276° West 527 606 37,000  Level FlightAware Transoceanic
09:42AM 51.9899 -29.8223 278° West 527 606 37,000  Level FlightAware Transoceanic
09:43AM 51.9552 -29.9951 278° West  Level FlightAware Approximate
09:44AM 51.9201 -30.1677 278° West  Level FlightAware Approximate
09:45AM 51.8848 -30.3399 278° West  Level FlightAware Approximate
09:46AM 51.8493 -30.5119 278° West  Level FlightAware Approximate
09:47AM 51.8135 -30.6836 278° West  Level FlightAware Approximate
09:48AM 51.7775 -30.8551 278° West  Level FlightAware Approximate
09:49AM 51.7412 -31.0263 278° West  Level FlightAware Approximate
09:50AM 51.7047 -31.1972 278° West  Level FlightAware Approximate
09:51AM 51.6679 -31.3678 278° West  Level FlightAware Approximate
09:52AM 51.6309 -31.5382 278° West  Level FlightAware Approximate
09:53AM 51.5936 -31.7083 279° West  Level FlightAware Approximate
09:54AM 51.5561 -31.8780 279° West  Level FlightAware Approximate
09:55AM 51.5183 -32.0476 279° West  Level FlightAware Approximate
09:56AM 51.4803 -32.2168 279° West  Level FlightAware Approximate
09:57AM 51.4420 -32.3857 279° West  Level FlightAware Approximate
09:58AM 51.4035 -32.5544 279° West  Level FlightAware Approximate
09:59AM 51.3648 -32.7228 279° West  Level FlightAware Approximate
10:00AM 51.3258 -32.8909 280° West  Level FlightAware Approximate
10:01AM 51.2866 -33.0587 280° West  Level FlightAware Approximate
10:02AM 51.2676 -33.2351 280° West  Level FlightAware Approximate
10:03AM 51.2483 -33.4114 280° West  Level FlightAware Approximate
10:04AM 51.2287 -33.5875 280° West  Level FlightAware Approximate
10:05AM 51.2089 -33.7635 280° West  Level FlightAware Approximate
10:06AM 51.1888 -33.9393 280° West  Level FlightAware Approximate
10:07AM 51.1684 -34.1150 280° West  Level FlightAware Approximate
10:08AM 51.1478 -34.2905 280° West  Level FlightAware Approximate
10:09AM 51.1269 -34.4659 280° West  Level FlightAware Approximate
10:10AM 51.1058 -34.6411 280° West  Level FlightAware Approximate
10:11AM 51.0844 -34.8161 280° West  Level FlightAware Approximate
10:12AM 51.0627 -34.9910 281° West  Level FlightAware Approximate
10:13AM 51.0408 -35.1657 281° West  Level FlightAware Approximate
10:14AM 51.0186 -35.3403 281° West  Level FlightAware Approximate
10:15AM 50.9962 -35.5146 281° West  Level FlightAware Approximate
10:16AM 50.9734 -35.6889 281° West  Level FlightAware Approximate
10:17AM 50.9505 -35.8629 281° West  Level FlightAware Approximate
10:18AM 50.9273 -36.0368 281° West  Level FlightAware Approximate
10:19AM 50.9038 -36.2105 281° West  Level FlightAware Approximate
10:20AM 50.8800 -36.3840 282° West  Level FlightAware Approximate
10:21AM 50.8560 -36.5573 282° West  Level FlightAware Approximate
10:22AM 50.8318 -36.7305 282° West  Level FlightAware Approximate
10:23AM 50.8073 -36.9035 282° West  Level FlightAware Approximate
10:24AM 50.7825 -37.0763 282° West  Level FlightAware Approximate
10:25AM 50.7575 -37.2489 282° West  Level FlightAware Approximate
10:26AM 50.7322 -37.4213 283° West  Level FlightAware Approximate
10:27AM 50.7067 -37.5935 283° West  Level FlightAware Approximate
10:28AM 50.6777 -37.7873 283° West  Level FlightAware Approximate
10:29AM 50.6483 -37.9807 283° West  Level FlightAware Approximate
10:30AM 50.6186 -38.1740 284° West  Level FlightAware Approximate
10:31AM 50.5886 -38.3669 284° West  Level FlightAware Approximate
10:32AM 50.5583 -38.5597 284° West  Level FlightAware Approximate
10:33AM 50.5276 -38.7522 284° West  Level FlightAware Approximate
10:34AM 50.4967 -38.9444 285° West  Level FlightAware Approximate
10:35AM 50.4654 -39.1364 285° West  Level FlightAware Approximate
10:36AM 50.4338 -39.3281 285° West  Level FlightAware Approximate
10:37AM 50.4019 -39.5196 286° West  Level FlightAware Approximate
10:38AM 50.3697 -39.7108 286° West  Level FlightAware Approximate
10:39AM 50.3371 -39.9017 286° West  Level FlightAware Approximate
10:40AM 50.3043 -40.0924 287° West  Level FlightAware Approximate
10:41AM 50.2711 -40.2829 287° West  Level FlightAware Approximate
10:42AM 50.2377 -40.4730 288° West  Level FlightAware Approximate
10:43AM 50.2102 -40.6654 288° West  Level FlightAware Approximate
10:44AM 50.1824 -40.8576 288° West  Level FlightAware Approximate
10:45AM 50.1543 -41.0495 289° West  Level FlightAware Approximate
10:46AM 50.1258 -41.2412 289° West  Level FlightAware Approximate
10:47AM 50.0971 -41.4326 290° West  Level FlightAware Approximate
10:48AM 50.0680 -41.6239 290° West  Level FlightAware Approximate
10:49AM 50.0387 -41.8149 291° West  Level FlightAware Approximate
10:50AM 50.0090 -42.0056 291° West  Level FlightAware Approximate
10:51AM 49.9790 -42.1962 292° West  Level FlightAware Approximate
10:52AM 49.9486 -42.3865 293° West  Level FlightAware Approximate
10:53AM 49.9180 -42.5765 293° West  Level FlightAware Approximate
10:54AM 49.8871 -42.7663 294° West  Level FlightAware Approximate
10:55AM 49.8558 -42.9559 295° West  Level FlightAware Approximate
10:56AM 49.8243 -43.1452 295° West  Level FlightAware Approximate
10:57AM 49.7924 -43.3343 296° West  Level FlightAware Approximate
10:58AM 49.7602 -43.5231 297° West  Level FlightAware Approximate
10:59AM 49.7278 -43.7117 298° West  Level FlightAware Approximate
11:00AM 49.6950 -43.9000 299° West  Level FlightAware Approximate
11:01AM 49.6619 -44.0880 300° West  Level FlightAware Approximate
11:02AM 49.6285 -44.2758 300° West  Level FlightAware Approximate
11:03AM 49.5948 -44.4634 301° West  Level FlightAware Approximate
11:04AM 49.5608 -44.6507 302° West  Level FlightAware Approximate
11:05AM 49.5265 -44.8377 304° West  Level FlightAware Approximate
11:06AM 49.4919 -45.0244 305° West  Level FlightAware Approximate
11:07AM 49.4570 -45.2109 306° West  Level FlightAware Approximate
11:08AM 49.4218 -45.3971 307° West  Level FlightAware Approximate
11:09AM 49.3863 -45.5831 308° West  Level FlightAware Approximate
11:10AM 49.3505 -45.7688 310° West  Level FlightAware Approximate
11:11AM 49.3144 -45.9542 311° West  Level FlightAware Approximate
11:12AM 49.2780 -46.1394 312° West  Level FlightAware Approximate
11:13AM 49.2414 -46.3242 314° West  Level FlightAware Approximate
11:14AM 49.2044 -46.5088 315° West  Level FlightAware Approximate
11:15AM 49.1671 -46.6932 317° Northwest  Level FlightAware Approximate
11:16AM 49.1296 -46.8772 319° Northwest  Level FlightAware Approximate
11:17AM 49.0917 -47.0610 320° Northwest  Level FlightAware Approximate
11:18AM 49.0535 -47.2444 322° Northwest  Level FlightAware Approximate
11:19AM 49.0151 -47.4276 324° Northwest  Level FlightAware Approximate
11:20AM 48.9764 -47.6105 326° Northwest  Level FlightAware Approximate
11:21AM 48.9374 -47.7932 328° Northwest  Level FlightAware Approximate
11:22AM 51.8167 -50.7833 255° West 460 529 37,000  Level Gander Center
11:23AM 51.7833 -50.9833 246° West 460 529 37,000  Level Gander Center
11:24AM 51.7333 -51.1667 248° West 460 529 37,000  Level Gander Center
11:25AM 51.6833 -51.3667 248° West 450 518 37,000  Level Gander Center
11:26AM 51.6333 -51.5667 248° West 460 529 37,000  Level Gander Center
11:27AM 51.5833 -51.7667 244° Southwest 460 529 37,000  Level Gander Center
11:28AM 51.5333 -51.9333 248° West 470 541 37,000  Level Gander Center
11:29AM 51.4833 -52.1333 255° West 460 529 37,000  Level Gander Center
11:30AM 51.4500 -52.3333 237° Southwest 460 529 37,000  Level Gander Center
11:31AM 51.3833 -52.5000 236° Southwest 460 529 37,000  Level Gander Center
11:33AM 51.2333 -52.8500 244° Southwest 460 529 37,000  Level Moncton Center
11:34AM 51.1833 -53.0167 240° Southwest 460 529 37,000  Level Moncton Center
11:35AM 51.1167 -53.2000 238° Southwest 460 529 37,000  Level Moncton Center
11:36AM 51.0500 -53.3667 240° Southwest 460 529 37,000  Level Moncton Center
11:37AM 50.9833 -53.5500 240° Southwest 470 541 37,000  Level Moncton Center
11:38AM 50.9167 -53.7333 238° Southwest 460 529 37,000  Level Moncton Center
11:39AM 50.8500 -53.9000 240° Southwest 460 529 37,000  Level Moncton Center
11:40AM 50.7833 -54.0833 238° Southwest 470 541 37,000  Level Moncton Center
11:41AM 50.7167 -54.2500 245° Southwest 470 541 37,000  Level Moncton Center
11:42AM 50.6667 -54.4167 234° Southwest 470 541 37,000  Level Moncton Center
11:43AM 50.5833 -54.6000 238° Southwest 470 541 37,000  Level Moncton Center
11:44AM 50.5167 -54.7667 240° Southwest 470 541 37,000  Level Moncton Center
11:45AM 50.4500 -54.9500 238° Southwest 470 541 37,000 -240 Level Moncton Center
11:46AM 50.3833 -55.1167 238° Southwest 470 541 36,600 -540 Descending Moncton Center
11:47AM 50.3167 -55.2833 235° Southwest 470 541 36,000 -300 Descending Moncton Center
11:48AM 50.2333 -55.4667 238° Southwest 460 529 36,000  Level Moncton Center
11:49AM 50.1667 -55.6333 238° Southwest 470 541 36,000  Level Moncton Center
11:50AM 50.1000 -55.8000 238° Southwest 470 541 36,000  Level Moncton Center
11:51AM 50.0333 -55.9667 238° Southwest 470 541 36,000  Level Moncton Center
11:52AM 49.9667 -56.1333 232° Southwest 460 529 36,000  Level Moncton Center
11:53AM 49.8833 -56.3000 245° Southwest 470 541 36,000  Level Moncton Center
11:54AM 49.8333 -56.4667 232° Southwest 460 529 36,000  Level Moncton Center
11:55AM 49.7500 -56.6333 238° Southwest 460 529 36,000  Level Moncton Center
11:56AM 49.6833 -56.8000 232° Southwest 460 529 36,000  Level Moncton Center
11:57AM 49.6000 -56.9667 238° Southwest 460 529 36,000  Level Moncton Center
11:58AM 49.5333 -57.1333 245° Southwest 460 529 36,000  Level Moncton Center
11:59AM 49.4833 -57.3000 227° Southwest 460 529 36,000  Level Moncton Center
12:00PM 49.3833 -57.4667 245° Southwest 460 529 36,000  Level Moncton Center
12:01PM 49.3333 -57.6333 233° Southwest 460 529 36,000  Level Moncton Center
12:02PM 49.2500 -57.8000 239° Southwest 460 529 36,000  Level Moncton Center
12:03PM 49.1833 -57.9667 233° Southwest 460 529 36,000  Level Moncton Center
12:04PM 49.1000 -58.1333 236° Southwest 460 529 36,000  Level Moncton Center
12:05PM 49.0333 -58.2833 236° Southwest 460 529 36,000  Level Moncton Center
12:06PM 48.9667 -58.4333 236° Southwest 450 518 36,000  Level Moncton Center
12:07PM 48.9000 -58.5833 235° Southwest 460 529 36,000  Level Moncton Center
12:08PM 48.8167 -58.7667 230° Southwest 460 529 36,000  Level Moncton Center
12:09PM 48.7333 -58.9167 236° Southwest 450 518 36,000  Level Moncton Center
12:10PM 48.6667 -59.0667 233° Southwest 450 518 36,000  Level Moncton Center
12:11PM 48.5833 -59.2333 243° Southwest 460 529 36,000  Level Moncton Center
12:12PM 48.5333 -59.3833 233° Southwest 460 529 36,000  Level Moncton Center
12:13PM 48.4500 -59.5500 227° Southwest 450 518 36,000  Level Moncton Center
12:14PM 48.3667 -59.6833 241° Southwest 450 518 36,000  Level Moncton Center
12:15PM 48.3000 -59.8667 233° Southwest 450 518 36,000  Level Moncton Center
12:16PM 48.2333 -60.0000 230° Southwest 450 518 36,000  Level Moncton Center
12:17PM 48.1500 -60.1500 239° Southwest 450 518 36,000  Level Moncton Center
12:18PM 48.0833 -60.3167 230° Southwest 450 518 36,000  Level Moncton Center
12:19PM 48.0000 -60.4667 233° Southwest 450 518 36,000  Level Moncton Center
12:20PM 47.9333 -60.6000 237° Southwest 450 518 36,000  Level Moncton Center
12:21PM 47.8667 -60.7500 233° Southwest 450 518 36,000  Level Moncton Center
12:22PM 47.7833 -60.9167 237° Southwest 450 518 36,000  Level Moncton Center
12:23PM 47.7167 -61.0667 231° Southwest 450 518 36,000  Level Moncton Center
12:24PM 47.6333 -61.2167 233° Southwest 450 518 36,000  Level Moncton Center
12:25PM 47.5667 -61.3500 234° Southwest 450 518 36,000  Level Moncton Center
12:26PM 47.4833 -61.5167 234° Southwest 450 518 36,000  Level Moncton Center
12:27PM 47.4167 -61.6500 231° Southwest 450 518 36,000  Level Moncton Center
12:28PM 47.3333 -61.8000 231° Southwest 440 506 36,000  Level Moncton Center
12:29PM 47.2500 -61.9500 234° Southwest 440 506 36,000  Level Moncton Center
12:30PM 47.1833 -62.0833 237° Southwest 440 506 36,000  Level Moncton Center
12:31PM 47.1167 -62.2333 237° Southwest 440 506 36,000  Level Moncton Center
12:32PM 47.0500 -62.3833 228° Southwest 440 506 36,000  Level Moncton Center
12:33PM 46.9667 -62.5167 228° Southwest 440 506 36,000  Level Moncton Center
12:34PM 46.8833 -62.6500 237° Southwest 440 506 36,000  Level Moncton Center
12:35PM 46.8167 -62.8000 228° Southwest 440 506 36,000  Level Moncton Center
12:36PM 46.7333 -62.9333 237° Southwest 440 506 36,000  Level Moncton Center
12:37PM 46.6667 -63.0833 224° Southwest 440 506 36,000  Level Moncton Center
12:38PM 46.5833 -63.2000 231° Southwest 440 506 36,000  Level Moncton Center
12:39PM 46.5000 -63.3500 237° Southwest 440 506 36,000  Level Moncton Center
12:40PM 46.4333 -63.5000 237° Southwest 440 506 36,000  Level Moncton Center
12:41PM 46.3667 -63.6500 230° Southwest 440 506 36,000  Level Moncton Center
12:42PM 46.3000 -63.7667 231° Southwest 440 506 36,000  Level Moncton Center
12:43PM 46.2167 -63.9167 237° Southwest 440 506 36,000  Level Moncton Center
12:44PM 46.1500 -64.0667 224° Southwest 440 506 36,000  Level Moncton Center
12:45PM 46.0667 -64.1833 228° Southwest 440 506 36,000  Level Moncton Center
12:46PM 45.9833 -64.3167 234° Southwest 440 506 36,000  Level Moncton Center
12:47PM 45.9167 -64.4500 228° Southwest 440 506 36,000  Level Moncton Center
12:48PM 45.8333 -64.5833 232° Southwest 440 506 36,000  Level Moncton Center
12:49PM 45.7500 -64.7333 224° Southwest 430 495 36,000  Level Moncton Center
12:50PM 45.6667 -64.8500 232° Southwest 430 495 36,000  Level Moncton Center
12:51PM 45.5833 -65.0000 235° Southwest 430 495 36,000  Level Moncton Center
12:52PM 45.5167 -65.1333 231° Southwest 430 495 36,000  Level Moncton Center
12:53PM 45.4500 -65.2500 232° Southwest 430 495 36,000  Level Moncton Center
12:54PM 45.3667 -65.4000 225° Southwest 430 495 36,000  Level Moncton Center
12:55PM 45.2833 -65.5167 235° Southwest 430 495 36,000  Level Moncton Center
12:56PM 45.2167 -65.6500 225° Southwest 430 495 36,000  Level Moncton Center
12:57PM 45.1333 -65.7667 238° Southwest 420 483 36,000  Level Moncton Center
12:58PM 45.0667 -65.9167 225° Southwest 430 495 36,000  Level Moncton Center
12:59PM 44.9833 -66.0333 235° Southwest 430 495 36,000  Level Moncton Center
01:00PM 44.9167 -66.1667 225° Southwest 430 495 36,000  Level Moncton Center
01:01PM 44.8333 -66.2833 229° Southwest 430 495 36,000  Level Moncton Center
01:02PM 44.7500 -66.4167 238° Southwest 430 495 36,000  Level Moncton Center
01:03PM 44.6833 -66.5667 225° Southwest 420 483 36,000  Level Moncton Center
01:04PM 44.6000 -66.6833 235° Southwest 420 483 36,000  Level Moncton Center
01:05PM 44.5333 -66.8167 225° Southwest 430 495 36,000  Level Moncton Center
01:06PM 44.4500 -66.9333 221° Southwest 420 483 36,000  Level Moncton Center
01:07PM 44.3667 -67.0333 225° Southwest 420 483 36,000  Level Moncton Center
01:08PM 44.2833 -67.1500 225° Southwest 420 483 36,000  Level Moncton Center
01:09PM 44.2000 -67.2667 225° Southwest 420 483 36,000  Level Moncton Center
01:10PM 44.1167 -67.3833 221° Southwest 420 483 36,000  Level Moncton Center
01:11PM 44.0333 -67.4833 220° Southwest 420 483 36,000  Level Moncton Center
01:12PM 43.9333 -67.6000 225° Southwest 420 483 36,000  Level Moncton Center
01:13PM 43.8500 -67.7167 221° Southwest 420 483 36,000  Level Moncton Center
01:14PM 43.7667 -67.8167 232° Southwest 420 483 36,000  Level Moncton Center
01:15PM 43.7000 -67.9333 220° Southwest 410 472 36,000  Level Moncton Center
01:16PM 43.6000 -68.0500 221° Southwest 410 472 36,000  Level Moncton Center
01:17PM 43.5167 -68.1500 232° Southwest 410 472 36,000  Level Moncton Center
01:18PM 43.4500 -68.2667 221° Southwest 410 472 36,000  Level Moncton Center
01:19PM 43.3667 -68.3667 226° Southwest 410 472 36,000  Level Moncton Center
01:20PM 43.2833 -68.4833 211° Southwest 410 472 36,000  Level Moncton Center
01:21PM 43.1833 -68.5667 226° Southwest 410 472 36,000  Level Moncton Center
01:22PM 43.1000 -68.6833 221° Southwest 410 472 36,000  Level Moncton Center
01:23PM 43.0167 -68.7833 226° Southwest 420 483 36,000  Level Moncton Center
01:24PM 42.9333 -68.9000 221° Southwest 420 483 36,000  Level Moncton Center
01:25PM 42.8500 -69.0000 221° Southwest 420 483 36,000  Level Moncton Center
01:26PM 42.7667 -69.1000 226° Southwest 420 483 36,000  Level Moncton Center
01:27PM 42.6833 -69.2167 216° Southwest 420 483 36,000  Level Moncton Center
01:28PM 42.5833 -69.3167 226° Southwest 420 483 36,000  Level Moncton Center
01:29PM 42.5000 -69.4333 222° Southwest 420 483 36,000  Level Moncton Center
01:30PM 42.4167 -69.5333 222° Southwest 410 472 36,000  Level Moncton Center
01:31PM 42.3333 -69.6333 226° Southwest 410 472 36,000  Level Moncton Center
01:32PM 42.2500 -69.7500 222° Southwest 410 472 36,000  Level Moncton Center
01:33PM 42.1667 -69.8500 217° Southwest 410 472 36,000  Level Moncton Center
01:34PM 42.0667 -69.9500 222° Southwest 420 483 36,000  Level Moncton Center
01:35PM 41.9833 -70.0500 233° Southwest 410 472 36,000  Level Moncton Center
01:36PM 41.9167 -70.1667 226° Southwest 410 472 36,000  Level Moncton Center
01:37PM 41.8333 -70.2833 222° Southwest 410 472 36,000  Level Moncton Center
01:38PM 41.7500 -70.3833 236° Southwest 420 483 36,000  Level Moncton Center
01:39PM 41.6833 -70.5167 222° Southwest 420 483 36,000  Level Moncton Center
01:40PM 41.6000 -70.6167 233° Southwest 410 472 36,000  Level Moncton Center
01:41PM 41.5333 -70.7333 221° Southwest 410 472 36,000  Level Moncton Center
01:42PM 41.4333 -70.8500 231° Southwest 420 483 36,000  Level Moncton Center
01:43PM 41.3833 -70.9333 233° Southwest 420 483 36,000 -420 Level Moncton Center
01:44PM 41.2717 -71.1336 243° Southwest 424 488 35,000 -840 Descending Boston Center
01:45PM 41.2189 -71.2700 250° West 424 488 34,100 -960 Descending Boston Center
01:46PM 41.1786 -71.4142 250° West 414 476 33,100 -960 Descending Boston Center
01:47PM 41.1403 -71.5525 232° Southwest 414 476 32,200 -900 Descending Boston Center
01:48PM 41.0806 -71.6553 231° Southwest 400 460 31,400 -900 Descending Boston Center
01:49PM 41.0064 -71.7744 234° Southwest 413 475 30,400 -1,080 Descending Boston Center
01:50PM 40.9319 -71.9100 224° Southwest 419 482 29,300 -960 Descending Boston Center
01:51PM 40.8594 -72.0011 232° Southwest 414 476 28,500 -900 Descending Boston Center
01:52PM 40.7889 -72.1194 232° Southwest 414 476 27,500 -1,080 Descending Boston Center
01:53PM 40.7225 -72.2319 230° Southwest 404 465 26,400 -1,080 Descending Boston Center
01:56PM 40.5619 -72.4814 232° Southwest 370 426 24,000 -1,020 Descending New York Center
01:57PM 40.4936 -72.5969 230° Southwest 370 426 23,000 -1,020 Descending New York Center
01:58PM 40.4272 -72.7014 231° Southwest 375 432 22,000 -960 Descending New York Center
01:59PM 40.3608 -72.8086 232° Southwest 375 432 21,100 -900 Descending New York Center
02:00PM 40.2964 -72.9156 230° Southwest 375 432 20,300 -600 Descending New York Center
02:01PM 40.2256 -73.0272 231° Southwest 385 443 20,000 -180 Descending New York Center
02:02PM 40.1589 -73.1364 230° Southwest 390 449 20,000  Level New York Center
02:03PM 40.0900 -73.2425 232° Southwest 390 449 20,000  Level New York Center
02:04PM 40.0250 -73.3514 230° Southwest 390 449 20,000 -60 Level New York Center
02:05PM 39.9644 -73.4467 231° Southwest 390 449 19,900 -600 Descending New York Center
02:06PM 39.9019 -73.5472 230° Southwest 378 435 18,900 -1,560 Descending New York Center
02:07PM 39.8411 -73.6419 231° Southwest 365 420 16,900 -1,920 Descending New York Center
02:08PM 39.7681 -73.7586 231° Southwest 351 404 14,900 -1,320 Descending Washington Center
02:09PM 39.7111 -73.8489 231° Southwest 345 397 14,100 -540 Descending Washington Center
02:10PM 39.6522 -73.9422 229° Southwest 339 390 13,900 -120 Descending Washington Center
02:11PM 39.5928 -74.0322 232° Southwest 329 379 13,900  Level Washington Center
02:12PM 39.5292 -74.1358 266° West 327 376 14,000 60 Climbing FAA TRACON SMA TRACON (SMA)
02:13PM 39.5250 -74.2178 272° West 318 366 14,100 60 Climbing FAA TRACON SMA TRACON (SMA)
02:13PM 39.5267 -74.2886 271° West 321 369 14,100  Level FAA TRACON SMA TRACON (SMA)
02:14PM 39.5281 -74.3689 271° West 323 372 14,100 -120 Level FAA TRACON SMA TRACON (SMA)
02:15PM 39.5292 -74.4492 271° West 326 375 14,000 -180 Descending FAA TRACON SMA TRACON (SMA)
02:15PM 39.5306 -74.5225 271° West 325 374 13,900 -1,080 Descending FAA TRACON SMA TRACON (SMA)
02:16PM 39.5317 -74.6017 272° West 319 367 12,600 -1,980 Descending FAA TRACON SMA TRACON (SMA)
02:17PM 39.5333 -74.6758 271° West 316 364 11,300 -1,500 Descending FAA TRACON SMA TRACON (SMA)
02:17PM 39.5344 -74.7494 272° West 315 362 10,600 -900 Descending FAA TRACON SMA TRACON (SMA)
02:18PM 39.5367 -74.8214 283° West 276 318 10,100 -1,020 Descending FAA TRACON SMA TRACON (SMA)
02:19PM 39.5475 -74.8800 283° West 270 311 9,300 -1,380 Descending FAA TRACON SMA TRACON (SMA)
02:19PM 39.5592 -74.9450 283° West 268 308 8,300 -1,440 Descending FAA TRACON SMA TRACON (SMA)
02:20PM 39.5711 -75.0106 323° Northwest 269 310 7,400 -1,320 Descending FAA TRACON SMA TRACON (SMA)
02:21PM 39.6042 -75.0433 13° North 249 287 6,600 -1,020 Descending FAA TRACON SMA TRACON (SMA)
02:21PM 39.6489 -75.0303 30° Northeast 245 282 6,100 -480 Descending FAA TRACON SMA TRACON (SMA)
02:22PM 39.6908 -74.9989 30° Northeast 250 288 6,000 -600 Descending FAA TRACON SMA TRACON (SMA)
02:23PM 39.7322 -74.9678 30° Northeast 247 284 5,300 -660 Descending FAA TRACON SMA TRACON (SMA)
02:23PM 39.7678 -74.9408 31° Northeast 239 275 5,100 -180 Descending FAA TRACON SMA TRACON (SMA)
02:24PM 39.8019 -74.9144 10° North 199 229 5,100 -420 Level FAA TRACON SMA TRACON (SMA)
02:25PM 39.8311 -74.9075 350° North 186 214 4,600 -660 Descending FAA TRACON SMA TRACON (SMA)
02:26PM 39.8833 -74.9200 313° West 180 207 4,000 -780 Descending FAA TRACON SMA TRACON (SMA)
02:26PM 39.9025 -74.9472 282° West 180 207 3,400 -660 Descending FAA TRACON SMA TRACON (SMA)
02:27PM 39.9092 -74.9894 273° West 175 201 3,100 -240 Descending FAA TRACON SMA TRACON (SMA)
02:28PM 39.9106 -75.0267 273° West 167 192 3,100  Level FAA TRACON SMA TRACON (SMA)